Aérodrome :
LOGIN :

S'inscrire | Disclaimer

   EN    FR    IT 

 










Légende :    VFR   VFR Marginal   IFR   IFR Intensif   IFR Très Intensif
Visi : 
Plafond : 
>= 8 km
>= 3000ft
5 à 8 km
1000 à 3000 ft
1500m à 5 km
500 à 1000 ft
800 à 1500m
200 à 500 ft
< 800m
< 200 ft
Symboles :   Orages  Brouillard  Fortes neiges  Fortes précipitations  Vent > 20 kt
SIGMETs :   Divers  Orages  Givrage  Turbulence  Onde Orograph.  Cendres Volcan.






- Altitude de l'aérodrome : 1234 ft
- Code IATA : LUX


ELLX - Luxembourg Findel

DERNIER METAR :
  • 191220Z 34003KT 280V030 9999 FEW018TCU SCT022 BKN029 05/01 Q1017 NOSIG

METARs EXPIRÉS :
  • 191150Z VRB02KT 9999 FEW018 BKN020 05/02 Q1017 NOSIG
  • 191120Z 29004KT 240V340 9999 FEW013 SCT015 BKN018 04/01 Q1017 NOSIG
  • 191050Z 27006KT 9999 FEW005 BKN008 04/01 Q1017 TEMPO SCT008
  • 191020Z 28007KT 9999 FEW005 BKN007 04/02 Q1017 TEMPO SCT008
  • 190950Z 27005KT 210V320 9999 FEW005 BKN007 04/02 Q1017 TEMPO SCT008

TAF COR TAF ELLX
Valide du 19 à 12h jusqu'au 20 à 18h UTC


191100Z 1912/2018 28007KT 9999 SCT010
TEMPO 1912/1921 BKN012
PROB40 1921/2009 0300 FZFG VV002
BECMG 2002/2004 09008KT
BECMG 2009/2012 BKN008
BECMG 2013/2015 BKN016
ATIS : +352 4798 27300
Météo : +352 4798 27010 / 27050



MET'MAP, la Météo Aéronautique d'un coup d'oeil ! - Copyright ORBIFLY Décembre 2007 - Disclaimer

ORBIFLY MET'MAP TEAM :

Programmation & Développement : Alexandra Zaïnal
Conception & Développement : Baudouin d'Aumeries
Co-Programmation & Développement : Marc-Olivier Méhu
Soutien technique & logistique : Manuel Goepfert

Contact : metmap@orbifly.com




SOURCES & CREDITS :

   NOAA